Terminal Aerodrome Forecast
Issued by NWS

Home | Current Version | Previous Version | Text Only | Print | Product List | Glossary On
Versions: 1 2 3 4 5 6 7 8 9 10 11 12 13 14 15 16 17 18 19 20 21 22
812
FTUS42 KFFC 191520 AAC
TAFRYY
TAF AMD
KRYY 191520Z 1915/2012 28004KT P6SM OVC020
     FM191700 30006KT P6SM SCT035
     FM192100 31006KT P6SM FEW250
     FM200000 00000KT P6SM SCT250=

USA.gov is the U.S. government's official web portal to all federal, state and local government web resources and services.